createdAt,value
2016-12-26T20:38:05.331Z,1021.51
2016-12-26T20:39:05.991Z,1021.55
2016-12-26T20:40:06.630Z,1021.72
2016-12-26T20:41:07.276Z,1021.72
2016-12-26T20:42:07.923Z,1021.76
2016-12-26T20:43:08.556Z,1021.67
2016-12-26T20:44:09.190Z,1021.67
2016-12-26T20:45:09.835Z,1021.57
2016-12-26T20:46:10.541Z,1021.64
2016-12-26T20:47:11.239Z,1021.65
2016-12-26T20:48:11.898Z,1021.69
2016-12-26T20:49:12.561Z,1021.69
2016-12-26T20:50:13.207Z,1021.68
2016-12-26T20:51:13.865Z,1021.6
2016-12-26T20:52:14.513Z,1021.68
2016-12-26T20:53:15.168Z,1021.66
2016-12-26T20:54:15.809Z,1021.57
2016-12-26T20:55:16.464Z,1021.66
2016-12-26T20:56:17.117Z,1021.75
2016-12-26T20:57:17.772Z,1021.67
2016-12-26T20:58:18.430Z,1021.68
2016-12-26T20:59:19.076Z,1021.62
2016-12-26T21:00:19.726Z,1021.63
2016-12-26T21:01:20.387Z,1021.68
2016-12-26T21:02:21.085Z,1021.63
2016-12-26T21:03:21.741Z,1021.62
2016-12-26T21:04:22.388Z,1021.57
2016-12-26T21:05:23.051Z,1021.59
2016-12-26T21:06:23.707Z,1021.53
2016-12-26T21:07:24.370Z,1021.54
2016-12-26T21:08:25.040Z,1021.47
2016-12-26T21:09:25.690Z,1021.43
2016-12-26T21:10:26.384Z,1021.45
2016-12-26T21:11:27.044Z,1021.43
2016-12-26T21:12:27.708Z,1021.49
2016-12-26T21:13:28.384Z,1021.49
2016-12-26T21:14:29.055Z,1021.49
2016-12-26T21:15:29.704Z,1021.58
2016-12-26T21:16:30.349Z,1021.52
2016-12-26T21:17:31.015Z,1021.54
2016-12-26T21:18:31.675Z,1021.58
2016-12-26T21:19:32.339Z,1021.54
2016-12-26T21:20:32.989Z,1021.63
2016-12-26T21:21:33.666Z,1021.63
2016-12-26T21:22:34.432Z,1021.67
2016-12-26T21:23:35.111Z,1021.7
2016-12-26T21:24:35.838Z,1021.8
2016-12-26T21:25:36.507Z,1021.85
2016-12-26T21:26:37.152Z,1021.81
2016-12-26T21:27:37.818Z,1021.84
2016-12-26T21:28:38.526Z,1021.98
2016-12-26T21:29:39.194Z,1022.06
2016-12-26T21:30:39.869Z,1021.96
2016-12-26T21:31:40.643Z,1021.91
2016-12-26T21:32:41.388Z,1021.9
2016-12-26T21:33:42.028Z,1021.84
2016-12-26T21:34:42.695Z,1021.79
2016-12-26T21:35:43.383Z,1021.74
2016-12-26T21:36:44.046Z,1021.68
2016-12-26T21:37:45.321Z,1021.7
2016-12-26T21:38:45.981Z,1021.67
2016-12-26T21:39:46.662Z,1021.66
2016-12-26T21:40:47.394Z,1021.7
2016-12-26T21:41:48.158Z,1021.82
2016-12-26T21:42:48.832Z,1021.97
2016-12-26T21:43:49.538Z,1021.92
2016-12-26T21:44:50.199Z,1021.99
2016-12-26T21:45:50.898Z,1021.99
2016-12-26T21:46:51.619Z,1021.83
2016-12-26T21:47:52.269Z,1021.83
2016-12-26T21:48:52.952Z,1021.74
2016-12-26T21:49:53.660Z,1021.67
2016-12-26T21:50:54.429Z,1021.68
2016-12-26T21:51:55.086Z,1021.66
2016-12-26T21:52:56.066Z,1021.68
2016-12-26T21:53:56.671Z,1021.67
2016-12-26T21:54:57.349Z,1021.57
2016-12-26T21:55:58.052Z,1021.46
2016-12-26T21:56:58.725Z,1021.42
2016-12-26T21:57:59.393Z,1021.45
2016-12-26T21:59:00.118Z,1021.43
2016-12-26T22:00:00.792Z,1021.5
2016-12-26T22:01:01.493Z,1021.55
2016-12-26T22:02:02.173Z,1021.69
2016-12-26T22:03:02.978Z,1021.87
2016-12-26T22:04:03.664Z,1021.98
2016-12-26T22:05:04.492Z,1021.97
2016-12-26T22:06:05.199Z,1022.08
2016-12-26T22:07:05.902Z,1021.99
2016-12-26T22:08:06.637Z,1021.92
2016-12-26T22:09:07.317Z,1021.8
2016-12-26T22:10:08.116Z,1021.73
2016-12-26T22:11:08.786Z,1021.6
2016-12-26T22:12:09.557Z,1021.52
2016-12-26T22:13:10.221Z,1021.6
2016-12-26T22:14:10.928Z,1021.46
2016-12-26T22:15:11.683Z,1021.48
2016-12-26T22:16:12.451Z,1021.49
2016-12-26T22:17:13.231Z,1021.41
2016-12-26T22:18:13.895Z,1021.48
2016-12-26T22:19:14.596Z,1021.47
2016-12-26T22:20:15.268Z,1021.57
2016-12-26T22:21:15.955Z,1021.54
2016-12-26T22:22:16.635Z,1021.51
2016-12-26T22:23:17.314Z,1021.53
2016-12-26T22:24:18.161Z,1021.47
2016-12-26T22:25:18.854Z,1021.43
2016-12-26T22:26:19.579Z,1021.34
2016-12-26T22:27:20.224Z,1021.33
2016-12-26T22:28:20.893Z,1021.31
2016-12-26T22:29:21.779Z,1021.31
2016-12-26T22:30:22.427Z,1021.15
2016-12-26T22:31:23.086Z,1021.21
2016-12-26T22:32:23.768Z,1021.22
2016-12-26T22:33:24.440Z,1021.19
2016-12-26T22:34:25.066Z,1021.16
2016-12-26T22:35:25.729Z,1021.05
2016-12-26T22:36:26.398Z,1021.05
2016-12-26T22:37:27.067Z,1021.13
2016-12-26T22:38:27.746Z,1021.3
2016-12-26T22:39:28.418Z,1021.3
2016-12-26T22:40:29.094Z,1021.3
2016-12-26T22:41:29.783Z,1021.28
2016-12-26T22:42:30.450Z,1021.35
2016-12-26T22:43:31.111Z,1021.21
2016-12-26T22:44:31.810Z,1021.26
2016-12-26T22:45:32.461Z,1021.16
2016-12-26T22:46:33.137Z,1021.3
2016-12-26T22:47:33.799Z,1021.19
2016-12-26T22:48:34.472Z,1021.21
2016-12-26T22:49:35.140Z,1021.22
2016-12-26T22:50:35.812Z,1021.09
2016-12-26T22:51:36.494Z,1021.21
2016-12-26T22:52:37.170Z,1021.25
2016-12-26T22:53:37.838Z,1021.34
2016-12-26T22:54:38.491Z,1021.36
2016-12-26T22:55:39.143Z,1021.3
2016-12-26T22:56:39.796Z,1021.26
2016-12-26T22:57:40.465Z,1021.26
2016-12-26T22:58:41.116Z,1021.35
2016-12-26T22:59:41.762Z,1021.28
2016-12-26T23:00:42.424Z,1021.28
2016-12-26T23:01:43.074Z,1021.36
2016-12-26T23:02:43.812Z,1021.33
2016-12-26T23:03:44.471Z,1021.45
2016-12-26T23:04:45.127Z,1021.45
2016-12-26T23:05:45.794Z,1021.59
2016-12-26T23:06:46.457Z,1021.6
2016-12-26T23:07:47.118Z,1021.49
2016-12-26T23:08:47.767Z,1021.67
2016-12-26T23:09:48.573Z,1021.7
2016-12-26T23:10:49.231Z,1021.69
2016-12-26T23:11:49.878Z,1021.54
2016-12-26T23:12:50.527Z,1021.74
2016-12-26T23:13:51.263Z,1021.74
2016-12-26T23:14:51.924Z,1021.7
2016-12-26T23:15:52.580Z,1021.76
2016-12-26T23:16:53.249Z,1021.68
2016-12-26T23:17:53.917Z,1021.85
2016-12-26T23:18:54.563Z,1021.73
2016-12-26T23:19:55.215Z,1021.85
2016-12-26T23:20:55.870Z,1021.87
2016-12-26T23:21:56.515Z,1021.81
2016-12-26T23:22:57.171Z,1021.89
2016-12-26T23:23:57.833Z,1021.92
2016-12-26T23:24:58.496Z,1021.89
2016-12-26T23:25:59.160Z,1021.93
2016-12-26T23:26:59.816Z,1021.89
2016-12-26T23:28:00.488Z,1021.91
2016-12-26T23:29:01.144Z,1021.91
2016-12-26T23:30:01.866Z,1021.82
2016-12-26T23:31:02.534Z,1021.85
2016-12-26T23:32:03.286Z,1021.81
2016-12-26T23:33:03.939Z,1021.78
2016-12-26T23:34:04.609Z,1021.81
2016-12-26T23:35:05.271Z,1021.83
2016-12-26T23:36:05.956Z,1021.84
2016-12-26T23:37:06.607Z,1021.77
2016-12-26T23:38:07.256Z,1021.88
2016-12-26T23:39:07.913Z,1021.96
2016-12-26T23:40:08.591Z,1021.9
2016-12-26T23:41:09.259Z,1021.97
2016-12-26T23:42:09.921Z,1021.88
2016-12-26T23:43:10.592Z,1021.94
2016-12-26T23:44:11.254Z,1022.03
2016-12-26T23:45:11.927Z,1021.99
2016-12-26T23:46:12.593Z,1022
2016-12-26T23:47:13.259Z,1021.97
2016-12-26T23:48:13.921Z,1022.08
2016-12-26T23:49:14.629Z,1022.06
2016-12-26T23:50:15.274Z,1022.09
2016-12-26T23:51:15.934Z,1022.03
2016-12-26T23:52:16.689Z,1022.07
2016-12-26T23:53:17.306Z,1022.14
2016-12-26T23:54:17.970Z,1022.24
2016-12-26T23:55:18.622Z,1022.16
2016-12-26T23:56:19.275Z,1022.3
2016-12-26T23:57:19.949Z,1022.25
2016-12-26T23:58:20.629Z,1022.29
2016-12-26T23:59:21.273Z,1022.3
